Time;durP1;ratioP1;P1;durP2;ratioP2;P2;SDS_P1;SDS_P2;PMS_P1;PMS_P2;Temp;Humidity;BMP_temperature;BMP_pressure;BME280_temperature;BME280_humidity;BME280_pressure;Samples;Min_cycle;Max_cycle;Signal;HPM_P1;HPM_P2
2023/06/12 00:00:56;;;;;;;5.50;5.00;;;;;;;16.95;nan;99262.19;5054021;28;20227;-80
2023/06/12 00:03:25;;;;;;;5.37;4.87;;;;;;;16.97;nan;99254.63;5052662;28;20191;-79
2023/06/12 00:05:58;;;;;;;5.33;4.87;;;;;;;16.93;nan;99265.19;5036559;28;20203;-79
2023/06/12 00:08:27;;;;;;;5.60;5.10;;;;;;;16.83;nan;99262.44;5050751;28;20189;-79
2023/06/12 00:10:54;;;;;;;5.47;4.80;;;;;;;16.79;nan;99257.84;5061217;28;20190;-79
2023/06/12 00:13:22;;;;;;;5.17;4.77;;;;;;;16.85;nan;99262.16;5054034;28;20213;-78
2023/06/12 00:15:48;;;;;;;5.70;5.20;;;;;;;16.84;nan;99261.38;5055180;28;20221;-79
2023/06/12 00:18:16;;;;;;;5.83;5.23;;;;;;;16.81;nan;99261.09;5062380;28;20200;-79
2023/06/12 00:20:42;;;;;;;5.40;4.90;;;;;;;16.73;nan;99255.13;5053551;28;20646;-79
2023/06/12 00:23:10;;;;;;;5.00;4.60;;;;;;;16.75;nan;99262.19;5060643;28;20190;-79
2023/06/12 00:25:37;;;;;;;6.87;4.87;;;;;;;16.71;nan;99259.97;5062270;28;20239;-79
2023/06/12 00:28:04;;;;;;;6.57;5.40;;;;;;;16.60;nan;99263.78;5036224;28;20204;-80
2023/06/12 00:30:30;;;;;;;5.10;4.63;;;;;;;16.59;nan;99261.31;5055054;28;20619;-80
2023/06/12 00:32:57;;;;;;;5.60;5.10;;;;;;;16.53;nan;99251.53;5059109;28;20628;-80
2023/06/12 00:35:25;;;;;;;5.13;4.73;;;;;;;16.47;nan;99250.72;5057651;28;20698;-79
2023/06/12 00:37:52;;;;;;;5.17;4.70;;;;;;;16.52;nan;99249.91;5069309;28;20185;-80
2023/06/12 00:40:18;;;;;;;5.37;4.83;;;;;;;16.48;nan;99252.34;5070230;28;20194;-80
2023/06/12 00:42:47;;;;;;;5.70;4.90;;;;;;;16.37;nan;99248.00;5062069;28;20196;-80
2023/06/12 00:45:16;;;;;;;5.80;5.20;;;;;;;16.38;nan;99244.19;5069683;28;20280;-80
2023/06/12 00:47:45;;;;;;;5.33;4.93;;;;;;;16.33;nan;99244.19;5067765;28;20242;-80
2023/06/12 00:50:14;;;;;;;5.23;4.60;;;;;;;16.32;nan;99247.16;5060041;28;20244;-79
2023/06/12 00:52:43;;;;;;;5.70;5.20;;;;;;;16.24;nan;99240.38;5053197;28;20237;-80
2023/06/12 00:55:14;;;;;;;6.33;5.20;;;;;;;16.52;nan;99241.78;5063307;28;20205;-79
2023/06/12 00:57:45;;;;;;;5.67;5.10;;;;;;;16.27;nan;99245.25;5065805;28;20200;-78
2023/06/12 01:00:14;;;;;;;5.77;5.10;;;;;;;16.30;nan;99258.25;5066416;28;20266;-78
2023/06/12 01:02:44;;;;;;;5.10;4.70;;;;;;;16.21;nan;99249.84;5066617;28;20186;-78
2023/06/12 01:05:19;;;;;;;5.07;4.60;;;;;;;16.17;nan;99242.53;5061344;28;20197;-79
2023/06/12 01:08:15;;;;;;;6.60;5.10;;;;;;;16.11;nan;99246.28;5051646;28;20193;-79
2023/06/12 01:10:53;;;;;;;6.00;5.10;;;;;;;16.05;nan;99255.47;5052968;28;20225;-80
2023/06/12 01:13:20;;;;;;;5.07;4.63;;;;;;;16.05;nan;99252.75;5035481;28;20197;-80
2023/06/12 01:15:48;;;;;;;7.97;4.90;;;;;;;15.97;nan;99254.06;5051638;28;20632;-78
2023/06/12 01:18:16;;;;;;;5.87;5.10;;;;;;;15.91;nan;99251.63;5051560;28;20577;-78
2023/06/12 01:20:43;;;;;;;5.50;5.00;;;;;;;15.81;nan;99245.09;5059003;28;20226;-78
2023/06/12 01:23:31;;;;;;;7.30;5.30;;;;;;;15.71;nan;99238.81;5063129;28;20215;-78
2023/06/12 01:26:36;;;;;;;5.43;5.03;;;;;;;15.65;nan;99242.56;5059456;28;20277;-78
2023/06/12 01:29:37;;;;;;;5.60;5.10;;;;;;;15.57;nan;99248.47;5069980;28;20205;-78
2023/06/12 01:32:12;;;;;;;6.40;5.20;;;;;;;15.52;nan;99251.94;5060140;28;20604;-78
2023/06/12 01:35:07;;;;;;;6.20;5.30;;;;;;;15.42;nan;99257.22;5035871;28;20742;-79
2023/06/12 01:37:45;;;;;;;8.13;5.20;;;;;;;15.46;nan;99255.63;5036389;28;20200;-78
2023/06/12 01:40:21;;;;;;;5.70;5.20;;;;;;;15.34;nan;99244.22;5041685;28;20578;-78
2023/06/12 01:42:52;;;;;;;5.87;5.33;;;;;;;15.22;nan;99251.69;5036777;28;20197;-77
2023/06/12 01:45:18;;;;;;;6.10;5.50;;;;;;;15.22;nan;99249.00;5055498;28;20230;-78
2023/06/12 01:47:45;;;;;;;5.97;5.43;;;;;;;15.14;nan;99252.16;5047929;28;20190;-78
2023/06/12 01:50:16;;;;;;;7.67;5.87;;;;;;;15.02;nan;99246.16;5051923;28;20190;-79
2023/06/12 01:52:43;;;;;;;5.97;5.43;;;;;;;15.02;nan;99251.53;5033660;28;20763;-78
2023/06/12 01:55:10;;;;;;;5.87;5.20;;;;;;;15.06;nan;99258.06;5039528;28;20217;-79
2023/06/12 01:57:38;;;;;;;6.80;5.60;;;;;;;15.01;nan;99258.81;5055889;28;20610;-78
2023/06/12 02:00:09;;;;;;;5.53;5.13;;;;;;;15.05;nan;99264.50;5051481;28;20208;-79
2023/06/12 02:02:46;;;;;;;5.73;5.10;;;;;;;15.03;nan;99269.34;5053358;28;20193;-78
2023/06/12 02:05:16;;;;;;;6.00;5.40;;;;;;;15.03;nan;99258.53;5034954;28;20293;-78
2023/06/12 02:07:43;;;;;;;5.57;4.57;;;;;;;15.02;nan;99262.34;5052039;28;20197;-79
2023/06/12 02:10:10;;;;;;;5.80;5.30;;;;;;;14.94;nan;99263.59;5052469;28;20769;-78
2023/06/12 02:12:37;;;;;;;6.70;5.67;;;;;;;14.96;nan;99264.16;5050734;28;20205;-79
2023/06/12 02:15:05;;;;;;;5.53;4.93;;;;;;;14.86;nan;99259.50;5039368;28;20337;-79
2023/06/12 02:17:33;;;;;;;5.90;5.27;;;;;;;14.74;nan;99268.84;5056953;28;20251;-79
2023/06/12 02:20:00;;;;;;;5.90;5.30;;;;;;;14.78;nan;99261.84;5053578;28;20189;-78
2023/06/12 02:22:27;;;;;;;5.70;5.30;;;;;;;14.72;nan;99265.56;5045802;28;20197;-79
2023/06/12 02:24:54;;;;;;;7.80;5.53;;;;;;;14.64;nan;99272.25;5057757;28;20289;-79
2023/06/12 02:27:21;;;;;;;7.50;5.50;;;;;;;14.60;nan;99267.59;5059745;28;20194;-78
2023/06/12 02:29:48;;;;;;;5.40;5.00;;;;;;;14.63;nan;99272.47;5069935;28;20185;-78
2023/06/12 02:32:15;;;;;;;7.40;5.13;;;;;;;14.54;nan;99272.94;5052741;28;20569;-79
2023/06/12 02:34:43;;;;;;;5.97;5.33;;;;;;;14.54;nan;99280.22;5060746;28;20642;-79
2023/06/12 02:37:10;;;;;;;5.87;5.07;;;;;;;14.57;nan;99273.50;5060450;28;20201;-78
2023/06/12 02:39:39;;;;;;;5.60;5.10;;;;;;;14.47;nan;99275.00;5055989;28;20205;-78
2023/06/12 02:42:07;;;;;;;6.27;5.67;;;;;;;14.40;nan;99282.50;5063602;28;20272;-79
2023/06/12 02:44:35;;;;;;;5.93;5.30;;;;;;;14.39;nan;99280.03;5072822;28;20681;-79
2023/06/12 02:47:03;;;;;;;5.90;5.40;;;;;;;14.41;nan;99280.63;5036493;28;20201;-79
2023/06/12 02:49:33;;;;;;;6.00;5.40;;;;;;;14.38;nan;99273.84;5056354;28;20216;-79
2023/06/12 02:52:00;;;;;;;8.07;5.17;;;;;;;14.37;nan;99284.88;5052071;28;20225;-79
2023/06/12 02:54:28;;;;;;;5.83;5.40;;;;;;;14.36;nan;99285.94;5071117;28;20570;-78
2023/06/12 02:56:58;;;;;;;5.63;5.13;;;;;;;14.35;nan;99286.97;5048275;28;20569;-79
2023/06/12 02:59:25;;;;;;;6.03;5.30;;;;;;;14.27;nan;99288.25;5050214;28;20197;-80
2023/06/12 03:01:57;;;;;;;6.00;5.50;;;;;;;14.21;nan;99283.03;5066403;28;20201;-79
2023/06/12 03:04:39;;;;;;;6.17;5.30;;;;;;;14.16;nan;99288.34;5045779;28;20347;-79
2023/06/12 03:07:07;;;;;;;5.83;5.33;;;;;;;14.26;nan;99291.19;5051265;28;20201;-78
2023/06/12 03:09:34;;;;;;;5.40;4.90;;;;;;;14.18;nan;99287.06;5076053;28;20217;-79
2023/06/12 03:12:02;;;;;;;5.97;5.43;;;;;;;14.24;nan;99296.81;5073721;28;20201;-78
2023/06/12 03:14:30;;;;;;;5.23;4.73;;;;;;;14.35;nan;99292.38;5056006;28;20200;-79
2023/06/12 03:16:59;;;;;;;6.03;5.47;;;;;;;14.35;nan;99285.09;5062818;28;20194;-78
2023/06/12 03:19:26;;;;;;;5.53;5.03;;;;;;;14.40;nan;99285.19;5048363;28;20190;-78
2023/06/12 03:21:53;;;;;;;6.23;5.27;;;;;;;14.58;nan;99292.13;5065795;28;20194;-78
2023/06/12 03:24:21;;;;;;;5.97;5.37;;;;;;;14.59;nan;99290.25;5039187;28;20193;-78
2023/06/12 03:26:48;;;;;;;5.80;5.30;;;;;;;14.49;nan;99293.63;5056783;28;20631;-79
2023/06/12 03:29:15;;;;;;;5.43;4.93;;;;;;;14.46;nan;99296.84;5064141;28;20973;-79
2023/06/12 03:31:42;;;;;;;5.53;5.07;;;;;;;14.60;nan;99295.38;5058450;28;20686;-78
2023/06/12 03:34:09;;;;;;;5.73;5.20;;;;;;;14.70;nan;99300.84;5056732;28;20193;-78
2023/06/12 03:36:37;;;;;;;6.00;5.20;;;;;;;14.74;nan;99295.78;5068113;28;20209;-78
2023/06/12 03:39:09;;;;;;;5.27;4.77;;;;;;;14.90;nan;99300.25;5056348;28;20212;-78
2023/06/12 03:41:48;;;;;;;5.40;4.90;;;;;;;15.05;nan;99299.59;5064955;28;20332;-79
2023/06/12 03:44:15;;;;;;;5.37;4.97;;;;;;;15.13;nan;99301.81;5058895;28;20204;-79
2023/06/12 03:46:42;;;;;;;5.23;4.77;;;;;;;15.27;nan;99301.13;5056571;28;20268;-78
2023/06/12 03:49:09;;;;;;;5.10;4.60;;;;;;;15.44;nan;99306.41;5063770;28;20201;-78
2023/06/12 03:51:37;;;;;;;5.53;5.03;;;;;;;15.56;nan;99307.03;5022826;28;20209;-79
2023/06/12 03:54:05;;;;;;;5.23;4.83;;;;;;;15.67;nan;99310.63;5066123;28;20196;-79
2023/06/12 03:56:32;;;;;;;5.33;4.70;;;;;;;15.65;nan;99315.47;5075142;28;20209;-79
2023/06/12 03:59:00;;;;;;;5.17;4.77;;;;;;;15.67;nan;99319.56;5075194;28;20185;-78
2023/06/12 04:01:27;;;;;;;5.23;4.73;;;;;;;15.73;nan;99309.56;5074965;28;20275;-79
2023/06/12 04:03:54;;;;;;;5.07;4.57;;;;;;;15.82;nan;99316.91;5076135;28;20197;-79
2023/06/12 04:06:22;;;;;;;4.83;4.43;;;;;;;16.28;nan;99319.88;5075023;28;20543;-78
2023/06/12 04:08:51;;;;;;;5.23;4.80;;;;;;;17.89;nan;99315.75;5074549;28;20580;-78
2023/06/12 04:11:19;;;;;;;5.83;3.90;;;;;;;19.07;nan;99314.97;5064151;28;20207;-78
2023/06/12 04:13:45;;;;;;;4.70;4.30;;;;;;;20.08;nan;99316.75;5055959;28;20242;-78
2023/06/12 04:16:13;;;;;;;4.77;4.37;;;;;;;20.79;nan;99318.63;5060033;28;20653;-79
2023/06/12 04:18:40;;;;;;;4.53;4.13;;;;;;;21.15;nan;99321.66;5062708;28;20673;-78
2023/06/12 04:21:07;;;;;;;4.77;4.40;;;;;;;21.50;nan;99318.38;5068714;28;20269;-78
2023/06/12 04:23:37;;;;;;;5.17;4.37;;;;;;;21.76;nan;99321.44;5062753;28;20192;-80
2023/06/12 04:26:07;;;;;;;6.43;4.13;;;;;;;22.26;nan;99315.06;5053446;28;20194;-79
2023/06/12 04:28:35;;;;;;;5.23;3.97;;;;;;;22.65;nan;99319.97;5050816;28;20191;-79
2023/06/12 04:31:02;;;;;;;4.30;3.90;;;;;;;23.27;nan;99322.97;5033953;28;20645;-79
2023/06/12 04:33:32;;;;;;;4.67;4.03;;;;;;;22.89;nan;99325.22;5047064;28;20185;-79
2023/06/12 04:36:02;;;;;;;4.70;4.30;;;;;;;22.71;nan;99326.97;5059115;28;20264;-78
2023/06/12 04:38:32;;;;;;;5.00;4.50;;;;;;;21.35;nan;99324.06;5058411;28;20207;-78
2023/06/12 04:41:00;;;;;;;4.60;4.17;;;;;;;20.71;nan;99322.81;5070406;28;20198;-78
2023/06/12 04:43:27;;;;;;;4.90;4.50;;;;;;;19.98;nan;99325.84;5058587;28;20653;-79
2023/06/12 04:45:55;;;;;;;5.80;4.50;;;;;;;19.40;nan;99326.94;5053480;28;20578;-79
2023/06/12 04:48:24;;;;;;;5.33;4.33;;;;;;;19.03;nan;99328.28;5056866;28;20191;-79
2023/06/12 04:50:53;;;;;;;6.20;4.63;;;;;;;18.71;nan;99331.44;5073357;28;20186;-80
2023/06/12 04:53:27;;;;;;;4.87;4.37;;;;;;;18.25;nan;99330.00;5068124;28;20285;-78
2023/06/12 04:55:56;;;;;;;5.17;4.43;;;;;;;18.29;nan;99328.38;5036940;28;20221;-79
2023/06/12 04:58:24;;;;;;;4.50;4.20;;;;;;;18.13;nan;99330.31;5052473;28;20253;-79
2023/06/12 05:00:55;;;;;;;4.33;4.00;;;;;;;18.15;nan;99321.94;5053517;28;20190;-79
2023/06/12 05:03:22;;;;;;;9.00;4.83;;;;;;;18.23;nan;99330.31;5051944;28;20777;-79
2023/06/12 05:05:53;;;;;;;6.07;4.47;;;;;;;18.16;nan;99332.47;5068953;28;20759;-79
2023/06/12 05:08:20;;;;;;;4.20;3.90;;;;;;;18.27;nan;99328.66;5048845;28;20300;-79
2023/06/12 05:10:47;;;;;;;4.90;4.50;;;;;;;17.95;nan;99330.91;5053243;28;20236;-79
2023/06/12 05:13:13;;;;;;;5.47;4.43;;;;;;;18.17;nan;99333.28;5056656;28;20186;-78
2023/06/12 05:15:41;;;;;;;4.67;4.27;;;;;;;18.35;nan;99335.38;5056930;28;20230;-79
2023/06/12 05:18:08;;;;;;;4.97;4.47;;;;;;;18.21;nan;99337.88;5060370;28;20299;-79
2023/06/12 05:20:36;;;;;;;4.60;4.20;;;;;;;18.16;nan;99335.19;5067268;28;20197;-78
2023/06/12 05:23:04;;;;;;;7.93;4.07;;;;;;;18.13;nan;99338.47;5062931;28;20181;-78
2023/06/12 05:25:31;;;;;;;5.53;4.10;;;;;;;18.05;nan;99336.31;5073227;28;20200;-79
2023/06/12 05:27:59;;;;;;;6.73;4.50;;;;;;;17.91;nan;99340.69;5043119;28;20323;-78
2023/06/12 05:30:26;;;;;;;6.63;4.60;;;;;;;17.70;nan;99337.19;5043825;28;20190;-79
2023/06/12 05:32:53;;;;;;;5.43;4.37;;;;;;;17.83;nan;99339.34;5059715;28;20194;-79
2023/06/12 05:35:21;;;;;;;5.70;4.80;;;;;;;17.10;nan;99330.66;5054426;28;20220;-79
2023/06/12 05:37:48;;;;;;;5.00;4.60;;;;;;;17.28;nan;99336.63;5056600;28;20204;-78
2023/06/12 05:40:16;;;;;;;5.20;4.23;;;;;;;17.53;nan;99339.34;5062710;28;20234;-79
2023/06/12 05:42:44;;;;;;;5.30;4.40;;;;;;;17.74;nan;99326.63;5059221;28;20284;-78
2023/06/12 05:45:11;;;;;;;4.20;3.90;;;;;;;17.55;nan;99331.75;5053848;28;20193;-79
2023/06/12 05:47:39;;;;;;;4.77;4.00;;;;;;;17.74;nan;99340.97;5064944;28;20560;-79
2023/06/12 05:50:07;;;;;;;4.30;3.83;;;;;;;17.42;nan;99335.81;5065956;28;20224;-79
2023/06/12 05:52:35;;;;;;;4.37;4.00;;;;;;;17.43;nan;99342.88;5067336;28;20330;-79
2023/06/12 05:55:06;;;;;;;4.13;3.73;;;;;;;17.65;nan;99336.38;5053028;28;20197;-78
2023/06/12 05:57:33;;;;;;;4.90;4.40;;;;;;;17.73;nan;99343.97;5052766;28;20197;-79
2023/06/12 06:00:00;;;;;;;4.73;4.20;;;;;;;17.88;nan;99346.63;5052636;28;20197;-78
2023/06/12 06:02:28;;;;;;;4.17;3.87;;;;;;;18.20;nan;99338.97;5052903;28;20210;-78
2023/06/12 06:04:57;;;;;;;5.83;4.30;;;;;;;18.36;nan;99342.44;5061039;28;20219;-78
2023/06/12 06:07:24;;;;;;;4.47;4.07;;;;;;;18.65;nan;99343.44;5061465;28;20292;-81
2023/06/12 06:09:52;;;;;;;5.30;4.00;;;;;;;18.40;nan;99344.31;5069406;28;20229;-78
2023/06/12 06:12:19;;;;;;;4.43;4.03;;;;;;;18.70;nan;99342.59;5059431;28;20275;-79
2023/06/12 06:14:47;;;;;;;4.40;4.00;;;;;;;18.93;nan;99339.22;5042707;28;20248;-79
2023/06/12 06:17:15;;;;;;;4.10;3.80;;;;;;;19.29;nan;99347.91;5043781;28;20240;-78
2023/06/12 06:19:42;;;;;;;4.57;4.17;;;;;;;19.57;nan;99351.81;5042110;28;20252;-78
2023/06/12 06:22:09;;;;;;;4.80;4.27;;;;;;;19.60;nan;99349.31;5057597;28;20722;-79
2023/06/12 06:24:36;;;;;;;5.23;4.00;;;;;;;19.74;nan;99342.13;5059454;28;20207;-79
2023/06/12 06:27:04;;;;;;;6.57;4.30;;;;;;;19.76;nan;99350.00;5049624;28;20757;-79
2023/06/12 06:29:31;;;;;;;4.17;3.87;;;;;;;19.66;nan;99341.94;5038505;28;20756;-79
2023/06/12 06:31:58;;;;;;;4.57;3.90;;;;;;;19.33;nan;99340.81;5039151;28;20733;-78
2023/06/12 06:34:25;;;;;;;6.17;4.10;;;;;;;18.83;nan;99341.97;5055847;28;20195;-78
2023/06/12 06:36:52;;;;;;;4.30;4.00;;;;;;;18.94;nan;99340.03;5058332;28;20560;-79
2023/06/12 06:39:19;;;;;;;4.87;4.40;;;;;;;19.44;nan;99336.97;5054632;28;20191;-78
2023/06/12 06:41:47;;;;;;;4.43;4.03;;;;;;;19.62;nan;99338.97;5051733;28;20653;-80
2023/06/12 06:44:14;;;;;;;7.43;4.23;;;;;;;19.80;nan;99342.88;5046582;28;20750;-79
2023/06/12 06:46:45;;;;;;;3.87;3.53;;;;;;;19.63;nan;99339.78;5044667;28;20204;-79
2023/06/12 06:49:13;;;;;;;4.80;4.00;;;;;;;19.78;nan;99342.38;5050075;28;20200;-78
2023/06/12 06:51:40;;;;;;;4.73;3.97;;;;;;;19.47;nan;99344.53;5051269;28;20219;-78
2023/06/12 06:54:08;;;;;;;4.37;3.97;;;;;;;19.51;nan;99344.78;5051155;28;20198;-79
2023/06/12 06:56:35;;;;;;;4.63;4.13;;;;;;;19.39;nan;99347.84;5046745;28;20321;-78
2023/06/12 06:59:03;;;;;;;5.10;4.10;;;;;;;19.77;nan;99348.91;5048476;28;20287;-79
2023/06/12 07:01:33;;;;;;;5.50;4.10;;;;;;;19.91;nan;99343.59;5057913;28;20193;-81
2023/06/12 07:04:00;;;;;;;4.03;3.73;;;;;;;20.19;nan;99351.72;5055317;28;20178;-80
2023/06/12 07:06:27;;;;;;;5.13;3.93;;;;;;;19.46;nan;99345.63;5056534;28;20686;-78
2023/06/12 07:08:54;;;;;;;4.50;4.10;;;;;;;19.77;nan;99344.28;5049481;28;20236;-78
2023/06/12 07:11:22;;;;;;;4.30;4.00;;;;;;;19.85;nan;99342.84;5052796;28;20227;-80
2023/06/12 07:13:49;;;;;;;4.67;4.27;;;;;;;19.48;nan;99340.75;5061113;28;20188;-79
2023/06/12 07:16:16;;;;;;;5.03;4.13;;;;;;;19.63;nan;99345.22;5054716;28;20217;-78
2023/06/12 07:18:43;;;;;;;4.83;4.43;;;;;;;19.39;nan;99350.56;5052822;28;20184;-80
2023/06/12 07:21:10;;;;;;;4.13;3.83;;;;;;;19.23;nan;99344.41;5057231;28;20202;-78
2023/06/12 07:23:37;;;;;;;6.27;4.67;;;;;;;19.75;nan;99341.03;5060771;28;20278;-78
2023/06/12 07:26:04;;;;;;;4.70;4.30;;;;;;;20.14;nan;99346.34;5049237;28;20565;-79
2023/06/12 07:28:48;;;;;;;4.90;4.50;;;;;;;19.81;nan;99343.69;5060152;28;20556;-80
2023/06/12 07:31:15;;;;;;;5.07;4.20;;;;;;;19.81;nan;99340.97;5049553;28;20195;-80
2023/06/12 07:33:42;;;;;;;4.50;4.10;;;;;;;19.97;nan;99348.69;5051104;28;20687;-78
2023/06/12 07:36:09;;;;;;;6.13;4.40;;;;;;;20.13;nan;99339.28;5067079;28;20212;-79
2023/06/12 07:38:36;;;;;;;4.70;4.20;;;;;;;20.12;nan;99336.84;5059734;28;20666;-78
2023/06/12 07:41:03;;;;;;;4.83;4.27;;;;;;;20.38;nan;99343.66;5065093;28;20209;-78
2023/06/12 07:43:34;;;;;;;5.03;3.83;;;;;;;20.54;nan;99345.06;5057284;28;20213;-79
2023/06/12 07:46:01;;;;;;;4.33;3.93;;;;;;;20.71;nan;99349.25;5061935;28;20236;-80
2023/06/12 07:48:28;;;;;;;5.50;4.40;;;;;;;20.62;nan;99341.69;5055823;28;20284;-79
2023/06/12 07:50:55;;;;;;;4.87;4.47;;;;;;;20.36;nan;99343.13;5062736;28;20187;-79
2023/06/12 07:53:22;;;;;;;4.83;4.37;;;;;;;20.20;nan;99341.66;5063771;28;20192;-78
2023/06/12 07:56:06;;;;;;;4.90;4.53;;;;;;;20.76;nan;99352.72;5049000;28;20213;-78
2023/06/12 07:58:37;;;;;;;4.90;4.50;;;;;;;21.36;nan;99350.22;5036666;28;20215;-79
2023/06/12 08:01:07;;;;;;;5.23;4.67;;;;;;;21.68;nan;99347.50;5058332;28;20671;-79
2023/06/12 08:03:38;;;;;;;4.47;4.07;;;;;;;21.38;nan;99342.53;5057049;28;20191;-79
2023/06/12 08:06:11;;;;;;;5.33;4.33;;;;;;;21.82;nan;99336.63;5046128;28;20200;-79
2023/06/12 08:08:44;;;;;;;4.43;4.03;;;;;;;21.57;nan;99345.22;5041087;28;20194;-80
2023/06/12 08:11:12;;;;;;;5.40;4.33;;;;;;;21.94;nan;99339.69;5054337;28;20218;-78
2023/06/12 08:13:41;;;;;;;5.67;4.13;;;;;;;22.45;nan;99342.22;5044396;28;20206;-79
2023/06/12 08:16:09;;;;;;;4.87;4.30;;;;;;;22.99;nan;99340.56;5058789;28;20220;-79
2023/06/12 08:18:36;;;;;;;5.93;4.53;;;;;;;22.75;nan;99338.91;5058057;28;20186;-78
2023/06/12 08:21:03;;;;;;;4.80;4.40;;;;;;;22.98;nan;99336.22;5063470;28;20585;-79
2023/06/12 08:23:30;;;;;;;4.50;4.20;;;;;;;23.05;nan;99336.63;5051729;28;20208;-80
2023/06/12 08:25:57;;;;;;;4.70;4.30;;;;;;;23.04;nan;99340.47;5056619;28;20188;-79
2023/06/12 08:28:24;;;;;;;5.95;4.32;;;;;;;23.75;nan;99345.00;5056324;28;20287;-79
2023/06/12 08:30:51;;;;;;;5.45;4.13;;;;;;;23.06;nan;99333.56;5053644;28;20450;-79
2023/06/12 08:33:18;;;;;;;5.28;3.95;;;;;;;22.46;nan;99332.13;5057019;28;20186;-80
2023/06/12 08:35:46;;;;;;;4.40;4.00;;;;;;;21.88;nan;99336.22;5048522;28;20204;-79
2023/06/12 08:38:13;;;;;;;4.45;3.70;;;;;;;22.63;nan;99335.84;5055875;28;20200;-78
2023/06/12 08:40:40;;;;;;;4.60;4.20;;;;;;;22.80;nan;99332.53;5056019;28;20660;-79
2023/06/12 08:43:08;;;;;;;5.05;4.03;;;;;;;23.30;nan;99329.72;5055991;28;20205;-79
2023/06/12 08:45:37;;;;;;;4.35;3.95;;;;;;;22.93;nan;99334.41;5060249;28;20238;-81
2023/06/12 08:48:05;;;;;;;4.53;4.10;;;;;;;22.13;nan;99331.41;5054677;28;20193;-79
2023/06/12 08:50:33;;;;;;;4.38;3.97;;;;;;;22.58;nan;99332.44;5038964;28;20244;-79
2023/06/12 08:53:00;;;;;;;4.10;3.80;;;;;;;22.49;nan;99329.59;5050149;28;20211;-79
2023/06/12 08:55:27;;;;;;;4.88;4.22;;;;;;;21.86;nan;99326.72;5056426;28;20230;-79
2023/06/12 08:57:56;;;;;;;4.55;4.13;;;;;;;21.74;nan;99334.59;5054140;28;20211;-78
2023/06/12 09:00:23;;;;;;;4.35;3.95;;;;;;;21.78;nan;99338.34;5030287;28;20190;-79
2023/06/12 09:02:52;;;;;;;4.15;3.85;;;;;;;21.97;nan;99333.66;5045210;28;20664;-79
2023/06/12 09:05:30;;;;;;;4.67;3.80;;;;;;;22.37;nan;99341.03;5041689;28;20204;-80
2023/06/12 09:07:57;;;;;;;4.17;3.87;;;;;;;22.78;nan;99337.47;5047500;28;20187;-79
2023/06/12 09:10:24;;;;;;;3.97;3.57;;;;;;;22.75;nan;99344.38;5043006;28;20237;-78
2023/06/12 09:12:54;;;;;;;4.68;3.55;;;;;;;22.73;nan;99340.31;5043091;28;20190;-79
2023/06/12 09:15:21;;;;;;;3.80;3.50;;;;;;;22.26;nan;99331.41;5039764;28;20193;-78
2023/06/12 09:17:52;;;;;;;4.22;3.65;;;;;;;22.73;nan;99335.66;5052235;28;20227;-78
2023/06/12 09:20:33;;;;;;;4.40;4.00;;;;;;;22.62;nan;99345.16;5054607;28;20236;-79
2023/06/12 09:23:06;;;;;;;4.43;4.03;;;;;;;21.89;nan;99340.56;5052625;28;20194;-79
2023/06/12 09:25:41;;;;;;;4.40;4.00;;;;;;;22.01;nan;99334.66;5041449;28;20544;-79
2023/06/12 09:28:12;;;;;;;4.63;3.78;;;;;;;21.48;nan;99340.47;5054069;28;20221;-78
2023/06/12 09:30:40;;;;;;;4.50;4.10;;;;;;;21.92;nan;99334.53;5056494;28;20575;-79
2023/06/12 09:33:08;;;;;;;4.37;3.83;;;;;;;21.11;nan;99337.75;5050673;28;20246;-79
2023/06/12 09:35:51;;;;;;;5.90;3.70;;;;;;;21.34;nan;99334.16;5044870;28;20193;-79
2023/06/12 09:38:22;;;;;;;4.37;3.80;;;;;;;21.25;nan;99344.09;5047179;28;20244;-79
2023/06/12 09:40:58;;;;;;;4.60;4.13;;;;;;;20.34;nan;99344.53;5048341;28;20275;-79
2023/06/12 09:43:28;;;;;;;4.63;4.23;;;;;;;20.35;nan;99341.50;5047516;28;20229;-78
2023/06/12 09:45:55;;;;;;;4.50;4.07;;;;;;;20.90;nan;99345.41;5056419;28;20659;-79
2023/06/12 09:48:23;;;;;;;4.50;4.10;;;;;;;21.08;nan;99341.91;5049299;28;20197;-80
2023/06/12 09:50:51;;;;;;;5.07;3.80;;;;;;;21.12;nan;99346.75;5052505;28;20197;-78
2023/06/12 09:53:20;;;;;;;4.50;4.00;;;;;;;21.28;nan;99357.13;5056105;28;20288;-79
2023/06/12 09:55:49;;;;;;;4.13;3.53;;;;;;;21.73;nan;99346.59;5031190;28;20195;-79
2023/06/12 09:58:17;;;;;;;4.20;3.83;;;;;;;22.23;nan;99326.59;5039490;28;20217;-79
2023/06/12 10:00:45;;;;;;;4.20;3.83;;;;;;;22.28;nan;99337.41;5041166;28;20186;-79
2023/06/12 10:03:15;;;;;;;4.23;3.93;;;;;;;21.87;nan;99333.81;5026196;28;20626;-79
2023/06/12 10:05:49;;;;;;;4.43;4.07;;;;;;;23.18;nan;99333.84;5049850;28;20205;-79
2023/06/12 10:08:19;;;;;;;4.45;4.15;;;;;;;23.79;nan;99324.13;5041039;28;20206;-79
2023/06/12 10:10:48;;;;;;;6.40;4.03;;;;;;;24.01;nan;99324.06;5038552;28;20352;-78
2023/06/12 10:13:15;;;;;;;4.03;3.65;;;;;;;23.93;nan;99330.31;5042804;28;20201;-79
2023/06/12 10:15:42;;;;;;;4.28;3.85;;;;;;;23.39;nan;99319.66;5042348;28;20198;-79
2023/06/12 10:18:09;;;;;;;5.07;4.28;;;;;;;23.63;nan;99328.38;5043833;28;20213;-79
2023/06/12 10:20:37;;;;;;;4.10;3.70;;;;;;;23.72;nan;99333.88;5052679;28;20209;-78
2023/06/12 10:23:05;;;;;;;4.22;3.50;;;;;;;22.87;nan;99338.34;5054964;28;20200;-78
2023/06/12 10:25:32;;;;;;;5.22;3.85;;;;;;;23.06;nan;99335.47;5052389;28;20189;-79
2023/06/12 10:28:00;;;;;;;3.65;3.38;;;;;;;23.07;nan;99326.16;5068911;28;20736;-79
2023/06/12 10:30:26;;;;;;;4.30;3.90;;;;;;;23.43;nan;99326.91;5060124;28;20520;-79
2023/06/12 10:32:53;;;;;;;4.28;3.78;;;;;;;24.12;nan;99317.19;5068860;28;20190;-79
2023/06/12 10:35:30;;;;;;;4.32;3.38;;;;;;;24.39;nan;99309.91;5060688;28;20244;-79
2023/06/12 10:37:57;;;;;;;4.00;3.70;;;;;;;24.14;nan;99306.75;5058258;28;20212;-79
2023/06/12 10:40:24;;;;;;;3.97;3.67;;;;;;;24.01;nan;99306.84;5066107;28;20559;-79
2023/06/12 10:43:08;;;;;;;5.40;3.78;;;;;;;23.80;nan;99308.50;5066157;28;20246;-79
2023/06/12 10:45:38;;;;;;;3.92;3.60;;;;;;;24.13;nan;99302.38;5054549;28;20188;-79
2023/06/12 10:48:05;;;;;;;4.43;3.65;;;;;;;23.42;nan;99305.38;5066476;28;20235;-78
2023/06/12 10:50:43;;;;;;;3.63;3.35;;;;;;;23.51;nan;99298.88;5054886;28;20192;-79
2023/06/12 10:53:15;;;;;;;4.13;3.83;;;;;;;23.77;nan;99300.94;5044141;28;20222;-79
2023/06/12 10:55:43;;;;;;;4.32;3.40;;;;;;;23.96;nan;99293.31;5056445;28;20292;-79
2023/06/12 10:58:15;;;;;;;5.30;3.38;;;;;;;23.59;nan;99300.84;5059413;28;20201;-79
2023/06/12 11:00:47;;;;;;;5.65;3.50;;;;;;;23.43;nan;99294.13;5052057;28;20194;-79
2023/06/12 11:03:19;;;;;;;5.82;3.55;;;;;;;23.77;nan;99296.28;5060506;28;20182;-79
2023/06/12 11:05:55;;;;;;;4.97;3.42;;;;;;;23.88;nan;99294.91;5051349;28;20593;-78
2023/06/12 11:08:23;;;;;;;3.58;3.20;;;;;;;24.06;nan;99288.38;5047756;28;20671;-79
2023/06/12 11:10:50;;;;;;;4.18;3.40;;;;;;;24.17;nan;99286.16;5058953;28;20178;-79
2023/06/12 11:13:21;;;;;;;3.65;3.35;;;;;;;24.19;nan;99288.59;5053160;28;20199;-79
2023/06/12 11:15:51;;;;;;;3.38;3.08;;;;;;;23.23;nan;99278.25;5055379;28;20189;-79
2023/06/12 11:18:18;;;;;;;5.85;3.30;;;;;;;24.03;nan;99282.69;5049374;28;20706;-79
2023/06/12 11:20:55;;;;;;;3.30;3.10;;;;;;;24.49;nan;99276.75;5059886;28;20196;-79
2023/06/12 11:23:26;;;;;;;4.00;3.55;;;;;;;25.00;nan;99284.25;5067276;28;20283;-79
2023/06/12 11:25:55;;;;;;;3.53;3.22;;;;;;;24.95;nan;99278.94;5072244;28;20203;-79
2023/06/12 11:28:26;;;;;;;3.50;3.20;;;;;;;24.64;nan;99273.53;5071775;28;20251;-78
2023/06/12 11:30:56;;;;;;;5.55;3.13;;;;;;;24.80;nan;99276.63;5070651;28;20185;-79
2023/06/12 11:33:26;;;;;;;3.38;3.00;;;;;;;24.61;nan;99270.66;5065687;28;20182;-79
2023/06/12 11:35:58;;;;;;;3.50;3.10;;;;;;;24.62;nan;99272.25;5059829;28;20185;-79
2023/06/12 11:38:25;;;;;;;5.45;3.22;;;;;;;24.56;nan;99268.88;5071493;28;20209;-80
2023/06/12 11:40:55;;;;;;;3.30;3.00;;;;;;;24.17;nan;99271.69;5071876;28;20191;-78
2023/06/12 11:43:23;;;;;;;3.38;3.08;;;;;;;24.52;nan;99265.97;5071446;28;20186;-78
2023/06/12 11:45:52;;;;;;;3.38;3.08;;;;;;;24.50;nan;99260.00;5067508;28;20198;-78
2023/06/12 11:48:19;;;;;;;3.35;3.10;;;;;;;24.50;nan;99270.94;5069991;28;20663;-79
2023/06/12 11:50:53;;;;;;;4.47;3.28;;;;;;;23.62;nan;99258.38;5055472;28;20243;-78
2023/06/12 11:53:20;;;;;;;3.13;2.92;;;;;;;24.18;nan;99265.06;5058999;28;20255;-80
2023/06/12 11:55:48;;;;;;;3.40;3.10;;;;;;;24.06;nan;99262.94;5062807;28;20239;-79
2023/06/12 11:58:18;;;;;;;3.88;3.10;;;;;;;24.85;nan;99260.03;5059877;28;20199;-79
2023/06/12 12:00:49;;;;;;;3.88;3.00;;;;;;;25.30;nan;99264.06;5065019;28;20189;-78